Time;durP1;ratioP1;P1;durP2;ratioP2;P2;SDS_P1;SDS_P2;PMS_P1;PMS_P2;Temp;Humidity;BMP_temperature;BMP_pressure;BME280_temperature;BME280_humidity;BME280_pressure;Samples;Min_cycle;Max_cycle;Signal;HPM_P1;HPM_P2
2022/04/27 00:02:20;;;;;;;24.80;16.40;;;;;;;;;;755895;183;921314;-63
2022/04/27 00:04:46;;;;;;;24.08;15.00;;;;;;;;;;754619;185;918742;-62
2022/04/27 00:07:12;;;;;;;21.27;16.10;;;;;;;;;;755302;185;920267;-66
2022/04/27 00:09:38;;;;;;;28.97;16.10;;;;;;;;;;753000;184;918881;-63
2022/04/27 00:12:04;;;;;;;27.47;16.70;;;;;;;;;;756204;184;919092;-62
2022/04/27 00:14:30;;;;;;;32.87;17.40;;;;;;;;;;742066;186;919882;-63
2022/04/27 00:16:56;;;;;;;26.13;16.20;;;;;;;;;;751717;183;919406;-63
2022/04/27 00:19:21;;;;;;;26.70;18.60;;;;;;;;;;764483;183;919484;-63
2022/04/27 00:21:47;;;;;;;27.03;17.10;;;;;;;;;;763129;182;919619;-62
2022/04/27 00:24:13;;;;;;;28.17;18.40;;;;;;;;;;753933;183;920044;-62
2022/04/27 00:26:39;;;;;;;28.27;17.63;;;;;;;;;;752842;184;919146;-61
2022/04/27 00:29:05;;;;;;;26.03;17.37;;;;;;;;;;755442;183;918875;-63
2022/04/27 00:31:31;;;;;;;29.83;18.80;;;;;;;;;;756730;184;918149;-62
2022/04/27 00:33:56;;;;;;;28.03;18.27;;;;;;;;;;752033;184;919157;-62
2022/04/27 00:36:22;;;;;;;29.27;18.00;;;;;;;;;;763601;184;918942;-63
2022/04/27 00:38:48;;;;;;;28.30;18.10;;;;;;;;;;751272;184;1019752;-65
2022/04/27 00:41:14;;;;;;;27.80;16.93;;;;;;;;;;749649;184;919062;-63
2022/04/27 00:43:40;;;;;;;30.00;20.17;;;;;;;;;;760759;184;916693;-62
2022/04/27 00:46:06;;;;;;;27.00;17.30;;;;;;;;;;759228;184;933646;-63
2022/04/27 00:48:31;;;;;;;32.53;17.13;;;;;;;;;;759763;183;919433;-63
2022/04/27 00:50:57;;;;;;;29.00;17.27;;;;;;;;;;746916;185;918160;-63
2022/04/27 00:53:23;;;;;;;25.63;16.67;;;;;;;;;;761917;184;918622;-63
2022/04/27 00:55:49;;;;;;;27.33;19.30;;;;;;;;;;751549;183;919394;-63
2022/04/27 00:58:15;;;;;;;28.23;18.53;;;;;;;;;;758744;183;924217;-62
2022/04/27 01:00:41;;;;;;;26.97;17.47;;;;;;;;;;759475;184;919040;-63
2022/04/27 01:03:06;;;;;;;27.60;18.70;;;;;;;;;;756417;184;918912;-63
2022/04/27 01:05:32;;;;;;;25.08;15.98;;;;;;;;;;755658;184;918760;-63
2022/04/27 01:08:00;;;;;;;32.87;17.40;;;;;;;;;;767899;183;819027;-63
2022/04/27 01:10:26;;;;;;;28.50;18.13;;;;;;;;;;747695;183;919202;-62
2022/04/27 01:12:50;;;;;;;29.30;19.73;;;;;;;;;;747271;185;918864;-64
2022/04/27 01:15:22;;;;;;;29.83;18.93;;;;;;;;;;759367;183;920274;-63
2022/04/27 01:17:47;;;;;;;30.03;19.20;;;;;;;;;;765125;184;919377;-64
2022/04/27 01:20:13;;;;;;;28.77;19.57;;;;;;;;;;755662;184;919672;-62
2022/04/27 01:22:39;;;;;;;34.57;19.87;;;;;;;;;;759504;184;918834;-62
2022/04/27 01:25:06;;;;;;;33.87;19.73;;;;;;;;;;763504;183;911847;-62
2022/04/27 01:27:31;;;;;;;28.40;18.80;;;;;;;;;;756566;184;919968;-63
2022/04/27 01:29:57;;;;;;;34.80;20.33;;;;;;;;;;760485;184;919550;-63
2022/04/27 01:32:23;;;;;;;35.77;22.50;;;;;;;;;;755084;182;919688;-62
2022/04/27 01:34:49;;;;;;;42.40;24.00;;;;;;;;;;755574;183;920975;-63
2022/04/27 01:39:48;;;;;;;34.67;23.10;;;;;;;;;;756926;184;637741;-64
2022/04/27 01:42:12;;;;;;;42.43;25.00;;;;;;;;;;760932;184;618697;-63
2022/04/27 01:44:39;;;;;;;47.93;25.87;;;;;;;;;;761477;184;618926;-64
2022/04/27 01:47:05;;;;;;;42.63;24.87;;;;;;;;;;761500;183;921870;-63
2022/04/27 01:49:31;;;;;;;47.42;27.17;;;;;;;;;;765825;183;919509;-63
2022/04/27 01:54:28;;;;;;;50.50;26.10;;;;;;;;;;748802;183;914241;-64
2022/04/27 01:56:54;;;;;;;52.17;29.60;;;;;;;;;;747956;184;913142;-62
2022/04/27 01:59:20;;;;;;;49.43;27.67;;;;;;;;;;756453;186;916032;-62
2022/04/27 02:01:46;;;;;;;49.75;28.27;;;;;;;;;;745297;186;919843;-63
2022/04/27 02:04:12;;;;;;;48.30;27.93;;;;;;;;;;750517;187;914316;-63
2022/04/27 02:06:38;;;;;;;50.10;31.45;;;;;;;;;;751836;186;919203;-62
2022/04/27 02:09:04;;;;;;;52.77;30.07;;;;;;;;;;756583;184;919450;-65
2022/04/27 02:11:30;;;;;;;53.10;30.80;;;;;;;;;;755546;184;918831;-64
2022/04/27 02:13:56;;;;;;;55.27;30.03;;;;;;;;;;752520;184;919664;-63
2022/04/27 02:16:22;;;;;;;48.73;28.43;;;;;;;;;;754907;185;918802;-64
2022/04/27 02:18:48;;;;;;;52.03;29.80;;;;;;;;;;749850;185;920191;-64
2022/04/27 02:21:14;;;;;;;49.97;28.80;;;;;;;;;;750252;185;919453;-63
2022/04/27 02:23:40;;;;;;;55.80;31.30;;;;;;;;;;763395;185;921409;-63
2022/04/27 02:26:06;;;;;;;56.43;29.53;;;;;;;;;;757476;183;920251;-63
2022/04/27 02:28:32;;;;;;;51.27;30.50;;;;;;;;;;747551;183;917943;-63
2022/04/27 02:30:58;;;;;;;58.33;29.90;;;;;;;;;;757094;184;920927;-64
2022/04/27 02:33:23;;;;;;;53.67;29.47;;;;;;;;;;754806;183;918566;-62
2022/04/27 02:35:49;;;;;;;50.60;28.83;;;;;;;;;;750863;183;916290;-63
2022/04/27 02:38:15;;;;;;;60.43;31.10;;;;;;;;;;760796;183;916320;-63
2022/04/27 02:40:41;;;;;;;51.43;29.27;;;;;;;;;;759150;184;919172;-63
2022/04/27 02:43:07;;;;;;;59.47;31.37;;;;;;;;;;755122;184;919884;-64
2022/04/27 02:45:33;;;;;;;62.45;30.58;;;;;;;;;;756401;184;923602;-64
2022/04/27 02:47:58;;;;;;;59.13;32.67;;;;;;;;;;761922;183;926297;-64
2022/04/27 02:52:56;;;;;;;54.10;31.10;;;;;;;;;;759122;183;919608;-62
2022/04/27 02:55:22;;;;;;;55.20;30.47;;;;;;;;;;756168;184;918632;-63
2022/04/27 02:57:48;;;;;;;63.25;32.97;;;;;;;;;;760446;184;918541;-63
2022/04/27 03:00:14;;;;;;;54.27;29.23;;;;;;;;;;757415;184;919147;-62
2022/04/27 03:02:40;;;;;;;58.17;29.90;;;;;;;;;;755021;183;920117;-61
2022/04/27 03:05:06;;;;;;;54.65;29.40;;;;;;;;;;760455;183;919815;-63
2022/04/27 03:07:31;;;;;;;61.97;34.17;;;;;;;;;;755381;184;1102989;-63
2022/04/27 03:09:57;;;;;;;62.20;32.87;;;;;;;;;;758409;183;920041;-63
2022/04/27 03:12:23;;;;;;;55.10;32.42;;;;;;;;;;756115;184;919769;-64
2022/04/27 03:14:49;;;;;;;71.93;32.17;;;;;;;;;;742244;183;3622625;-63
2022/04/27 03:17:15;;;;;;;67.93;32.70;;;;;;;;;;758888;184;919609;-63
2022/04/27 03:19:41;;;;;;;55.90;31.87;;;;;;;;;;751869;184;918971;-63
2022/04/27 03:22:08;;;;;;;59.07;33.40;;;;;;;;;;763841;183;919056;-63
2022/04/27 03:24:32;;;;;;;73.20;34.70;;;;;;;;;;755923;184;919199;-63
2022/04/27 03:26:58;;;;;;;68.90;35.40;;;;;;;;;;759542;183;919564;-62
2022/04/27 03:29:24;;;;;;;54.67;31.00;;;;;;;;;;759265;183;919701;-63
2022/04/27 03:31:50;;;;;;;63.67;35.50;;;;;;;;;;748766;183;919258;-62
2022/04/27 03:34:16;;;;;;;62.73;33.17;;;;;;;;;;750210;184;919021;-63
2022/04/27 03:36:42;;;;;;;78.10;37.07;;;;;;;;;;759513;184;919436;-62
2022/04/27 03:39:07;;;;;;;66.20;38.63;;;;;;;;;;752924;185;919196;-63
2022/04/27 03:41:33;;;;;;;61.43;34.27;;;;;;;;;;749181;184;920051;-63
2022/04/27 03:43:59;;;;;;;67.90;34.10;;;;;;;;;;749081;185;627056;-64
2022/04/27 03:46:25;;;;;;;75.83;34.60;;;;;;;;;;736522;191;625433;-64
2022/04/27 03:48:52;;;;;;;59.07;33.53;;;;;;;;;;749003;186;919517;-62
2022/04/27 03:51:17;;;;;;;59.42;31.77;;;;;;;;;;757870;183;922813;-64
2022/04/27 03:53:42;;;;;;;69.57;36.43;;;;;;;;;;766304;184;919670;-63
2022/04/27 03:56:08;;;;;;;69.30;37.43;;;;;;;;;;755730;183;918834;-63
2022/04/27 03:58:34;;;;;;;75.43;40.47;;;;;;;;;;757205;183;620126;-64
2022/04/27 04:01:00;;;;;;;61.23;31.53;;;;;;;;;;761373;182;634434;-62
2022/04/27 04:03:26;;;;;;;75.87;37.93;;;;;;;;;;754662;183;676462;-64
2022/04/27 04:05:52;;;;;;;93.17;44.60;;;;;;;;;;755365;184;920415;-63
2022/04/27 04:08:18;;;;;;;90.60;45.73;;;;;;;;;;762256;184;919348;-64
2022/04/27 04:10:45;;;;;;;71.17;36.67;;;;;;;;;;754852;184;919958;-62
2022/04/27 04:13:09;;;;;;;67.13;33.37;;;;;;;;;;752032;184;977712;-62
2022/04/27 04:15:37;;;;;;;67.13;36.33;;;;;;;;;;755904;184;920114;-62
2022/04/27 04:18:01;;;;;;;69.13;36.80;;;;;;;;;;763182;184;921754;-62
2022/04/27 04:20:27;;;;;;;68.37;36.30;;;;;;;;;;759547;183;919406;-63
2022/04/27 04:22:53;;;;;;;71.63;39.07;;;;;;;;;;766408;183;919716;-64
2022/04/27 04:30:22;;;;;;;71.93;38.70;;;;;;;;;;755542;184;918295;-62
2022/04/27 04:32:48;;;;;;;69.13;37.60;;;;;;;;;;758391;184;637621;-63
2022/04/27 04:35:13;;;;;;;71.40;34.50;;;;;;;;;;763683;184;627546;-62
2022/04/27 04:37:39;;;;;;;71.50;37.10;;;;;;;;;;762634;183;629919;-63
2022/04/27 04:40:06;;;;;;;68.10;36.97;;;;;;;;;;759788;183;695877;-63
2022/04/27 04:42:31;;;;;;;77.20;35.93;;;;;;;;;;764172;184;622088;-64
2022/04/27 04:44:57;;;;;;;59.70;34.00;;;;;;;;;;760427;184;619582;-64
2022/04/27 04:47:23;;;;;;;73.40;35.10;;;;;;;;;;759715;184;622484;-62
2022/04/27 04:49:49;;;;;;;66.20;35.20;;;;;;;;;;753744;183;1737573;-62
2022/04/27 04:52:15;;;;;;;77.17;37.00;;;;;;;;;;751397;184;917879;-63
2022/04/27 04:54:41;;;;;;;65.70;35.00;;;;;;;;;;757564;184;919014;-62
2022/04/27 04:57:06;;;;;;;71.50;33.83;;;;;;;;;;755935;184;919035;-63
2022/04/27 04:59:32;;;;;;;67.47;35.28;;;;;;;;;;762499;183;951335;-63
2022/04/27 05:01:58;;;;;;;53.73;29.43;;;;;;;;;;752253;183;932893;-62
2022/04/27 05:04:24;;;;;;;61.00;33.77;;;;;;;;;;753168;183;921212;-63
2022/04/27 05:06:50;;;;;;;58.97;32.07;;;;;;;;;;764872;182;918993;-63
2022/04/27 05:09:16;;;;;;;66.73;30.87;;;;;;;;;;762423;182;918787;-63
2022/04/27 05:11:43;;;;;;;75.07;37.83;;;;;;;;;;756624;182;919422;-63
2022/04/27 05:14:07;;;;;;;58.13;33.63;;;;;;;;;;758706;183;918622;-61
2022/04/27 05:16:33;;;;;;;66.17;35.93;;;;;;;;;;757940;184;918357;-63
2022/04/27 05:18:59;;;;;;;66.35;37.92;;;;;;;;;;746856;184;921196;-63
2022/04/27 05:21:25;;;;;;;59.60;35.80;;;;;;;;;;747185;184;918498;-62
2022/04/27 05:23:51;;;;;;;71.70;38.03;;;;;;;;;;753620;185;918883;-62
2022/04/27 05:26:17;;;;;;;72.37;38.37;;;;;;;;;;748122;185;919205;-62
2022/04/27 05:34:01;;;;;;;64.10;34.53;;;;;;;;;;746551;186;914940;-64
2022/04/27 05:36:27;;;;;;;66.90;38.67;;;;;;;;;;751393;186;917907;-64
2022/04/27 05:38:53;;;;;;;61.77;32.93;;;;;;;;;;744111;187;920082;-63
2022/04/27 05:41:19;;;;;;;67.83;34.37;;;;;;;;;;745537;185;924563;-63
2022/04/27 05:43:44;;;;;;;73.18;38.53;;;;;;;;;;759206;184;913748;-64
2022/04/27 05:46:10;;;;;;;80.67;39.63;;;;;;;;;;751064;185;921717;-64
2022/04/27 05:48:36;;;;;;;89.00;37.05;;;;;;;;;;745445;187;917917;-63
2022/04/27 05:51:03;;;;;;;78.83;40.00;;;;;;;;;;748494;185;921165;-64
2022/04/27 05:53:28;;;;;;;54.37;29.13;;;;;;;;;;750551;185;919594;-64
2022/04/27 05:55:54;;;;;;;75.63;36.93;;;;;;;;;;747750;185;913520;-67
2022/04/27 05:58:20;;;;;;;68.53;37.80;;;;;;;;;;749577;185;916277;-63
2022/04/27 06:00:46;;;;;;;77.33;38.87;;;;;;;;;;758541;184;911831;-64
2022/04/27 06:03:11;;;;;;;68.77;33.60;;;;;;;;;;756061;183;910648;-63
2022/04/27 06:05:37;;;;;;;61.13;32.28;;;;;;;;;;755675;184;919578;-64
2022/04/27 06:08:03;;;;;;;75.13;40.30;;;;;;;;;;761206;183;918009;-64
2022/04/27 06:10:29;;;;;;;79.00;42.47;;;;;;;;;;747286;184;917857;-64
2022/04/27 06:12:55;;;;;;;64.00;35.53;;;;;;;;;;753440;184;941123;-63
2022/04/27 06:15:21;;;;;;;41.67;23.20;;;;;;;;;;760041;185;913051;-64
2022/04/27 06:17:47;;;;;;;62.80;34.10;;;;;;;;;;756868;184;914513;-64
2022/04/27 06:20:12;;;;;;;60.57;33.47;;;;;;;;;;757987;183;1009650;-63
2022/04/27 06:22:39;;;;;;;62.78;31.80;;;;;;;;;;757765;183;919726;-63
2022/04/27 06:25:05;;;;;;;56.70;32.00;;;;;;;;;;766061;182;907653;-63
2022/04/27 06:27:31;;;;;;;52.40;31.53;;;;;;;;;;754543;183;917213;-63
2022/04/27 06:29:57;;;;;;;57.70;32.87;;;;;;;;;;754505;184;1017419;-63
2022/04/27 06:32:23;;;;;;;49.37;30.47;;;;;;;;;;765653;183;920091;-63
2022/04/27 06:34:48;;;;;;;46.43;26.27;;;;;;;;;;759633;184;1022540;-63
2022/04/27 06:37:14;;;;;;;58.97;30.97;;;;;;;;;;757523;183;920715;-61
2022/04/27 06:39:40;;;;;;;61.07;31.73;;;;;;;;;;762908;183;918873;-63
2022/04/27 06:42:06;;;;;;;42.00;21.40;;;;;;;;;;751647;184;919476;-62
2022/04/27 06:44:32;;;;;;;45.75;26.30;;;;;;;;;;754207;184;920484;-62
2022/04/27 06:46:58;;;;;;;53.87;28.03;;;;;;;;;;765080;183;919911;-63
2022/04/27 06:49:24;;;;;;;53.17;30.30;;;;;;;;;;755606;184;919312;-63
2022/04/27 06:51:50;;;;;;;49.03;25.43;;;;;;;;;;755153;184;921436;-63
2022/04/27 06:54:15;;;;;;;53.23;27.30;;;;;;;;;;752711;184;919752;-62
2022/04/27 06:56:41;;;;;;;60.63;31.47;;;;;;;;;;760012;184;918379;-62
2022/04/27 06:59:07;;;;;;;48.67;28.13;;;;;;;;;;755641;184;916783;-63
2022/04/27 07:01:33;;;;;;;52.40;30.15;;;;;;;;;;757064;183;919720;-63
2022/04/27 07:04:06;;;;;;;52.83;26.20;;;;;;;;;;766252;183;922773;-62
2022/04/27 07:06:25;;;;;;;49.53;29.30;;;;;;;;;;755499;184;916555;-62
2022/04/27 07:08:50;;;;;;;44.20;24.73;;;;;;;;;;756097;184;921578;-63
2022/04/27 07:11:16;;;;;;;53.87;29.13;;;;;;;;;;759572;183;921630;-64
2022/04/27 07:13:42;;;;;;;46.43;27.63;;;;;;;;;;754544;184;924294;-62
2022/04/27 07:16:08;;;;;;;47.50;27.47;;;;;;;;;;753252;184;915593;-63
2022/04/27 07:18:34;;;;;;;49.77;29.43;;;;;;;;;;732428;190;916067;-63
2022/04/27 07:21:00;;;;;;;50.03;27.48;;;;;;;;;;749188;186;915066;-63
2022/04/27 07:23:26;;;;;;;56.10;26.00;;;;;;;;;;751919;183;916500;-63
2022/04/27 07:25:51;;;;;;;46.77;25.90;;;;;;;;;;752626;184;916864;-63
2022/04/27 07:28:17;;;;;;;48.97;21.83;;;;;;;;;;760007;184;914644;-64
2022/04/27 07:30:44;;;;;;;40.37;24.60;;;;;;;;;;756971;182;919238;-64
2022/04/27 07:33:09;;;;;;;45.90;22.47;;;;;;;;;;753733;182;1017059;-63
2022/04/27 07:35:36;;;;;;;45.80;25.40;;;;;;;;;;760505;182;913492;-63
2022/04/27 07:38:01;;;;;;;35.17;20.37;;;;;;;;;;758050;183;915950;-64
2022/04/27 07:40:26;;;;;;;43.30;23.00;;;;;;;;;;754513;184;920027;-64
2022/04/27 07:42:53;;;;;;;43.53;26.15;;;;;;;;;;759852;184;921028;-63
2022/04/27 07:45:19;;;;;;;40.47;20.40;;;;;;;;;;761155;183;918252;-64
2022/04/27 07:47:45;;;;;;;42.70;25.90;;;;;;;;;;751071;184;920440;-63
2022/04/27 07:50:10;;;;;;;42.67;23.30;;;;;;;;;;747915;184;915880;-64
2022/04/27 07:52:36;;;;;;;43.70;24.13;;;;;;;;;;756634;184;912906;-64
2022/04/27 07:55:02;;;;;;;47.55;23.60;;;;;;;;;;735288;189;914133;-63
2022/04/27 07:57:28;;;;;;;37.10;20.00;;;;;;;;;;752999;184;916988;-64
2022/04/27 07:59:54;;;;;;;36.33;23.27;;;;;;;;;;760236;183;920781;-64
2022/04/27 08:02:20;;;;;;;40.37;23.87;;;;;;;;;;753600;184;919056;-64
2022/04/27 08:04:46;;;;;;;28.60;21.60;;;;;;;;;;754583;183;1020806;-62
2022/04/27 08:07:12;;;;;;;35.33;18.77;;;;;;;;;;759993;184;919458;-62
2022/04/27 08:09:38;;;;;;;35.40;21.70;;;;;;;;;;753638;184;919290;-63
2022/04/27 08:12:04;;;;;;;29.20;18.67;;;;;;;;;;755501;183;919020;-63
2022/04/27 08:14:31;;;;;;;28.50;18.90;;;;;;;;;;754885;183;919328;-64
2022/04/27 08:16:58;;;;;;;32.77;19.50;;;;;;;;;;764273;183;918700;-65
2022/04/27 08:19:21;;;;;;;29.60;17.30;;;;;;;;;;755533;184;919061;-64
2022/04/27 08:21:48;;;;;;;28.13;15.83;;;;;;;;;;761454;183;624688;-64
2022/04/27 08:24:16;;;;;;;22.83;15.33;;;;;;;;;;757684;184;919492;-65
2022/04/27 08:26:39;;;;;;;37.22;21.58;;;;;;;;;;758377;183;915985;-64
2022/04/27 08:29:05;;;;;;;33.67;20.87;;;;;;;;;;755872;184;918350;-65
2022/04/27 08:31:31;;;;;;;28.13;19.20;;;;;;;;;;757633;183;918840;-64
2022/04/27 08:33:58;;;;;;;32.43;18.73;;;;;;;;;;750212;183;924228;-64
2022/04/27 08:36:23;;;;;;;28.53;18.40;;;;;;;;;;757212;183;918077;-64
2022/04/27 08:38:51;;;;;;;37.77;22.63;;;;;;;;;;748958;184;918758;-64
2022/04/27 08:41:15;;;;;;;30.30;19.13;;;;;;;;;;759503;184;919433;-66
2022/04/27 08:43:41;;;;;;;54.30;21.03;;;;;;;;;;751550;184;919100;-64
2022/04/27 08:46:07;;;;;;;37.33;19.77;;;;;;;;;;751127;184;919287;-64
2022/04/27 08:48:33;;;;;;;32.37;21.80;;;;;;;;;;755951;184;919565;-65
2022/04/27 08:51:02;;;;;;;31.10;18.13;;;;;;;;;;753169;184;918553;-64
2022/04/27 08:53:24;;;;;;;41.90;23.12;;;;;;;;;;751394;184;927053;-64
2022/04/27 08:55:53;;;;;;;37.27;21.93;;;;;;;;;;764426;184;919965;-64
2022/04/27 08:58:16;;;;;;;40.23;24.77;;;;;;;;;;746654;184;920180;-64
2022/04/27 09:00:42;;;;;;;44.23;22.60;;;;;;;;;;755288;184;1032076;-64
2022/04/27 09:03:25;;;;;;;37.70;24.67;;;;;;;;;;753091;183;919648;-65
2022/04/27 09:05:52;;;;;;;43.27;23.47;;;;;;;;;;748609;186;920156;-66
2022/04/27 09:08:18;;;;;;;31.70;19.43;;;;;;;;;;742758;186;918540;-66
2022/04/27 09:10:44;;;;;;;42.03;24.20;;;;;;;;;;753871;183;919015;-66
2022/04/27 09:13:10;;;;;;;38.20;25.60;;;;;;;;;;759072;183;919245;-66
2022/04/27 09:15:36;;;;;;;20.93;13.50;;;;;;;;;;761584;184;924429;-65
2022/04/27 09:23:05;;;;;;;39.93;27.37;;;;;;;;;;754198;183;918854;-65
2022/04/27 09:25:31;;;;;;;33.35;22.15;;;;;;;;;;759899;183;936658;-67
2022/04/27 09:27:57;;;;;;;37.20;20.00;;;;;;;;;;756158;184;919051;-64
2022/04/27 09:30:23;;;;;;;38.67;20.63;;;;;;;;;;754677;184;918956;-65
2022/04/27 09:32:50;;;;;;;35.97;20.87;;;;;;;;;;761970;184;921655;-65
2022/04/27 09:35:16;;;;;;;26.77;17.20;;;;;;;;;;759229;183;921610;-65
2022/04/27 09:37:42;;;;;;;39.87;22.67;;;;;;;;;;753157;184;919707;-65
2022/04/27 09:40:08;;;;;;;38.13;21.47;;;;;;;;;;749298;184;918371;-66
2022/04/27 09:42:34;;;;;;;38.13;22.90;;;;;;;;;;768376;181;918061;-64
2022/04/27 09:45:16;;;;;;;32.63;21.73;;;;;;;;;;757223;184;918985;-65
2022/04/27 09:47:45;;;;;;;31.03;18.20;;;;;;;;;;752406;184;917969;-64
2022/04/27 09:50:11;;;;;;;34.83;19.08;;;;;;;;;;752419;184;918752;-65
2022/04/27 09:52:36;;;;;;;32.73;23.17;;;;;;;;;;761353;184;918868;-64
2022/04/27 09:55:02;;;;;;;33.37;19.50;;;;;;;;;;760236;183;918352;-66
2022/04/27 09:57:28;;;;;;;29.03;19.03;;;;;;;;;;758808;183;918900;-64
2022/04/27 09:59:55;;;;;;;26.65;15.20;;;;;;;;;;763693;184;920082;-65
2022/04/27 10:02:22;;;;;;;23.30;14.73;;;;;;;;;;741788;190;919625;-65
2022/04/27 10:04:48;;;;;;;22.70;14.87;;;;;;;;;;751021;184;919208;-65
2022/04/27 10:07:13;;;;;;;35.60;20.33;;;;;;;;;;748314;185;918963;-64
2022/04/27 10:09:39;;;;;;;34.60;21.13;;;;;;;;;;756863;184;918951;-67
2022/04/27 10:12:11;;;;;;;37.17;21.77;;;;;;;;;;751242;185;919812;-64
2022/04/27 10:14:32;;;;;;;36.57;22.27;;;;;;;;;;752543;185;919487;-66
2022/04/27 10:16:58;;;;;;;35.50;21.03;;;;;;;;;;751968;185;919765;-66
2022/04/27 10:19:24;;;;;;;30.90;20.80;;;;;;;;;;752478;184;919905;-65
2022/04/27 10:21:57;;;;;;;29.80;18.27;;;;;;;;;;754530;184;919287;-66
2022/04/27 10:24:28;;;;;;;38.50;22.67;;;;;;;;;;757769;184;920097;-66
2022/04/27 10:26:54;;;;;;;39.97;18.70;;;;;;;;;;763995;183;920633;-64
2022/04/27 10:29:20;;;;;;;36.40;22.00;;;;;;;;;;758843;183;917055;-64
2022/04/27 10:32:02;;;;;;;34.10;20.52;;;;;;;;;;764232;183;913624;-64
2022/04/27 10:34:27;;;;;;;22.77;17.07;;;;;;;;;;752159;185;916011;-66
2022/04/27 10:36:53;;;;;;;24.73;13.48;;;;;;;;;;752634;183;913547;-66
2022/04/27 10:39:19;;;;;;;24.27;14.57;;;;;;;;;;756732;183;647673;-67
2022/04/27 10:41:49;;;;;;;24.27;16.80;;;;;;;;;;753472;183;918638;-66
2022/04/27 10:44:15;;;;;;;16.93;9.90;;;;;;;;;;754167;183;922576;-67
2022/04/27 10:46:41;;;;;;;24.30;15.53;;;;;;;;;;763058;183;916657;-66
2022/04/27 10:49:14;;;;;;;23.37;15.33;;;;;;;;;;749635;186;919729;-68
2022/04/27 10:51:54;;;;;;;21.90;15.20;;;;;;;;;;732356;190;920969;-66
2022/04/27 10:54:20;;;;;;;28.87;15.80;;;;;;;;;;748992;184;917657;-66
2022/04/27 10:56:46;;;;;;;24.67;16.57;;;;;;;;;;752774;183;917278;-66
2022/04/27 10:59:32;;;;;;;27.23;18.87;;;;;;;;;;764095;183;918727;-65
2022/04/27 11:01:57;;;;;;;25.30;17.00;;;;;;;;;;766644;182;920977;-66
2022/04/27 11:04:23;;;;;;;26.90;16.57;;;;;;;;;;759364;182;918471;-66
2022/04/27 11:06:55;;;;;;;32.77;18.10;;;;;;;;;;758653;183;918740;-66
2022/04/27 11:09:24;;;;;;;34.47;19.30;;;;;;;;;;760541;183;919698;-65
2022/04/27 11:11:51;;;;;;;28.50;18.77;;;;;;;;;;759243;184;918622;-67
2022/04/27 11:14:15;;;;;;;34.27;18.87;;;;;;;;;;758566;183;919339;-67
2022/04/27 11:16:43;;;;;;;35.40;21.50;;;;;;;;;;761754;183;919214;-66
2022/04/27 11:19:09;;;;;;;31.43;19.90;;;;;;;;;;762126;184;920186;-67
2022/04/27 11:21:35;;;;;;;32.20;19.37;;;;;;;;;;746993;185;918721;-67
2022/04/27 11:24:01;;;;;;;24.27;16.77;;;;;;;;;;750722;184;919770;-67
2022/04/27 11:26:27;;;;;;;30.33;17.47;;;;;;;;;;762609;184;919532;-67
2022/04/27 11:28:53;;;;;;;28.37;17.80;;;;;;;;;;756130;183;921831;-67
2022/04/27 11:31:19;;;;;;;28.23;18.90;;;;;;;;;;758318;184;1020906;-67
2022/04/27 11:33:45;;;;;;;30.97;17.40;;;;;;;;;;757797;184;919410;-67
2022/04/27 11:36:16;;;;;;;32.90;19.47;;;;;;;;;;762153;184;918306;-67
2022/04/27 11:38:42;;;;;;;25.77;16.30;;;;;;;;;;755541;184;918883;-66
2022/04/27 11:41:13;;;;;;;27.07;16.70;;;;;;;;;;752774;184;924635;-67
2022/04/27 11:43:39;;;;;;;30.13;17.33;;;;;;;;;;757872;183;927303;-68
2022/04/27 11:46:06;;;;;;;25.20;13.40;;;;;;;;;;759020;184;917728;-67
2022/04/27 11:48:30;;;;;;;27.42;18.27;;;;;;;;;;751878;183;919965;-66
2022/04/27 11:50:56;;;;;;;29.80;21.20;;;;;;;;;;751619;183;919634;-70
2022/04/27 11:53:22;;;;;;;25.77;17.70;;;;;;;;;;763226;184;930997;-67
2022/04/27 11:55:49;;;;;;;30.40;18.10;;;;;;;;;;757057;183;919000;-67
2022/04/27 11:58:21;;;;;;;28.13;17.47;;;;;;;;;;755541;183;947632;-66
2022/04/27 12:00:47;;;;;;;24.17;15.13;;;;;;;;;;755185;184;919384;-67
2022/04/27 12:03:14;;;;;;;23.07;15.80;;;;;;;;;;759672;184;919374;-67
2022/04/27 12:05:40;;;;;;;27.33;16.03;;;;;;;;;;754470;183;918613;-67
2022/04/27 12:08:09;;;;;;;26.90;16.70;;;;;;;;;;755833;184;918256;-67
2022/04/27 12:10:38;;;;;;;23.53;16.00;;;;;;;;;;760781;184;917770;-67
2022/04/27 12:13:04;;;;;;;24.53;15.70;;;;;;;;;;755172;184;919399;-67
2022/04/27 12:15:30;;;;;;;27.50;17.97;;;;;;;;;;755924;184;919028;-67
2022/04/27 12:17:56;;;;;;;29.98;16.75;;;;;;;;;;762654;181;918503;-69
2022/04/27 12:20:24;;;;;;;22.73;14.50;;;;;;;;;;766479;183;918900;-68
2022/04/27 12:22:52;;;;;;;20.17;15.17;;;;;;;;;;760529;184;919526;-67
2022/04/27 12:25:18;;;;;;;22.15;13.75;;;;;;;;;;757365;184;1021671;-66
2022/04/27 12:27:44;;;;;;;33.63;14.70;;;;;;;;;;762311;184;918981;-66
2022/04/27 12:30:10;;;;;;;19.97;14.83;;;;;;;;;;758534;184;918502;-67
2022/04/27 12:32:36;;;;;;;23.30;14.97;;;;;;;;;;753171;184;919697;-67
2022/04/27 12:37:36;;;;;;;27.60;15.83;;;;;;;;;;759586;184;918792;-66
2022/04/27 12:40:06;;;;;;;24.17;15.50;;;;;;;;;;755212;183;919222;-66
2022/04/27 12:42:34;;;;;;;30.13;19.17;;;;;;;;;;754414;183;918375;-69
2022/04/27 12:44:59;;;;;;;31.83;18.77;;;;;;;;;;758828;184;1019563;-66
2022/04/27 12:47:25;;;;;;;27.53;17.80;;;;;;;;;;763311;184;920307;-66
2022/04/27 12:49:51;;;;;;;25.07;15.40;;;;;;;;;;755699;184;974183;-68
2022/04/27 12:52:30;;;;;;;23.30;14.70;;;;;;;;;;754574;183;919251;-66
2022/04/27 12:54:59;;;;;;;25.90;18.10;;;;;;;;;;756231;183;919758;-67
2022/04/27 12:57:25;;;;;;;24.00;16.17;;;;;;;;;;758843;183;919148;-67
2022/04/27 12:59:54;;;;;;;34.60;17.80;;;;;;;;;;753607;183;919656;-67
2022/04/27 13:02:20;;;;;;;29.17;17.17;;;;;;;;;;753590;184;919083;-70
2022/04/27 13:04:47;;;;;;;35.57;18.57;;;;;;;;;;755542;184;1020529;-67
2022/04/27 13:07:13;;;;;;;23.47;15.27;;;;;;;;;;751467;186;1587678;-67
2022/04/27 13:12:10;;;;;;;32.00;15.90;;;;;;;;;;758106;183;918260;-68
2022/04/27 13:14:36;;;;;;;28.43;18.40;;;;;;;;;;760592;184;919028;-67
2022/04/27 13:17:02;;;;;;;23.70;13.40;;;;;;;;;;754249;184;919760;-66
2022/04/27 13:19:28;;;;;;;27.80;15.20;;;;;;;;;;754275;184;919250;-68
2022/04/27 13:21:54;;;;;;;24.57;15.53;;;;;;;;;;755499;183;928437;-67
2022/04/27 13:24:19;;;;;;;25.48;15.70;;;;;;;;;;758851;184;919521;-67
2022/04/27 13:26:46;;;;;;;21.17;13.67;;;;;;;;;;752603;184;917921;-67
2022/04/27 13:29:11;;;;;;;22.37;11.43;;;;;;;;;;751554;183;919214;-66
2022/04/27 13:31:37;;;;;;;24.33;14.43;;;;;;;;;;756872;183;918842;-67
2022/04/27 13:34:03;;;;;;;27.60;14.73;;;;;;;;;;752220;182;1019591;-68
2022/04/27 13:36:29;;;;;;;28.57;13.87;;;;;;;;;;757330;182;1020623;-67
2022/04/27 13:38:55;;;;;;;20.80;13.07;;;;;;;;;;760173;184;918909;-68
2022/04/27 13:41:20;;;;;;;22.43;13.23;;;;;;;;;;754155;184;918916;-67
2022/04/27 13:43:46;;;;;;;26.25;15.82;;;;;;;;;;753146;184;1020249;-67
2022/04/27 13:46:13;;;;;;;21.80;13.15;;;;;;;;;;761536;184;919392;-66
2022/04/27 13:48:41;;;;;;;26.23;15.40;;;;;;;;;;750372;187;919773;-67
2022/04/27 13:51:05;;;;;;;30.97;18.17;;;;;;;;;;751619;183;917601;-68
2022/04/27 13:53:31;;;;;;;24.13;14.33;;;;;;;;;;747143;186;918628;-66
2022/04/27 13:55:56;;;;;;;35.93;18.80;;;;;;;;;;760439;184;919626;-67
2022/04/27 13:58:22;;;;;;;29.77;18.37;;;;;;;;;;758549;184;920721;-67
2022/04/27 14:00:49;;;;;;;29.00;17.80;;;;;;;;;;759008;183;918613;-67
2022/04/27 14:03:14;;;;;;;23.00;15.57;;;;;;;;;;766777;183;918997;-67
2022/04/27 14:05:40;;;;;;;29.13;17.27;;;;;;;;;;757736;183;915420;-68
2022/04/27 14:08:06;;;;;;;29.67;16.87;;;;;;;;;;756313;183;922919;-67
2022/04/27 14:10:33;;;;;;;22.63;13.27;;;;;;;;;;755920;183;921534;-66
2022/04/27 14:15:30;;;;;;;21.77;12.70;;;;;;;;;;719697;189;915889;-67
2022/04/27 14:20:28;;;;;;;24.00;15.60;;;;;;;;;;739397;187;919344;-67
2022/04/27 14:22:54;;;;;;;26.00;19.00;;;;;;;;;;749821;186;914705;-67
2022/04/27 14:25:20;;;;;;;26.77;14.83;;;;;;;;;;751718;184;920277;-67
2022/04/27 14:27:46;;;;;;;20.52;14.52;;;;;;;;;;745324;184;919429;-67
2022/04/27 14:30:12;;;;;;;24.97;13.70;;;;;;;;;;750442;185;918490;-67
2022/04/27 14:32:38;;;;;;;19.70;15.30;;;;;;;;;;749962;184;919004;-68